Terminal Aerodrome Forecast
Issued by NWS

Home | Current Version | Previous Version | Text Only | Print | Product List | Glossary On
Versions: 1 2 3 4 5 6 7 8 9 10 11 12 13 14 15 16 17 18 19 20 21 22 23 24 25 26 27 28
861
FTUS41 KOKX 162346
TAFGON
TAF
KGON 162346Z 1700/1724 17003KT P6SM SCT015 OVC025
      TEMPO 1707/1709 6SM -RA BKN015
     FM170900 11010KT 5SM -RA BR OVC010
     FM171200 08010KT 2SM -RA BR OVC008
     FM171600 04006KT 2SM -RA BR OVC008
     FM171900 31008KT 5SM BR BKN012 BKN120
     FM172100 31012KT P6SM SCT025 BKN120=

USA.gov is the U.S. government's official web portal to all federal, state and local government web resources and services.